sensor_id;sensor_type;location;lat;lon;timestamp;temperature;humidity
22112;DHT22;11222;50.872;4.312;2022-09-24T00:01:22;14.80;99.90
22112;DHT22;11222;50.872;4.312;2022-09-24T00:03:53;14.80;99.90
22112;DHT22;11222;50.872;4.312;2022-09-24T00:06:20;14.70;99.90
22112;DHT22;11222;50.872;4.312;2022-09-24T00:08:47;14.60;99.90
22112;DHT22;11222;50.872;4.312;2022-09-24T00:11:14;14.60;99.90
22112;DHT22;11222;50.872;4.312;2022-09-24T00:13:41;14.50;99.90
22112;DHT22;11222;50.872;4.312;2022-09-24T00:16:12;14.50;99.90
22112;DHT22;11222;50.872;4.312;2022-09-24T00:18:39;14.50;99.90
22112;DHT22;11222;50.872;4.312;2022-09-24T00:21:23;14.50;99.90
22112;DHT22;11222;50.872;4.312;2022-09-24T00:23:57;14.60;99.90
22112;DHT22;11222;50.872;4.312;2022-09-24T00:26:24;14.60;99.90
22112;DHT22;11222;50.872;4.312;2022-09-24T00:29:10;14.60;99.90
22112;DHT22;11222;50.872;4.312;2022-09-24T00:31:36;14.60;99.90
22112;DHT22;11222;50.872;4.312;2022-09-24T00:34:03;14.60;99.90
22112;DHT22;11222;50.872;4.312;2022-09-24T00:36:28;14.60;99.90
22112;DHT22;11222;50.872;4.312;2022-09-24T00:38:56;14.60;99.90
22112;DHT22;11222;50.872;4.312;2022-09-24T00:41:28;14.60;99.90
22112;DHT22;11222;50.872;4.312;2022-09-24T00:43:55;14.70;99.90
22112;DHT22;11222;50.872;4.312;2022-09-24T00:46:24;14.70;99.90
22112;DHT22;11222;50.872;4.312;2022-09-24T00:48:59;14.70;99.90
22112;DHT22;11222;50.872;4.312;2022-09-24T00:51:28;14.60;99.90
22112;DHT22;11222;50.872;4.312;2022-09-24T00:54:00;14.60;99.90
22112;DHT22;11222;50.872;4.312;2022-09-24T00:56:30;14.50;99.90
22112;DHT22;11222;50.872;4.312;2022-09-24T00:58:59;14.40;99.90
22112;DHT22;11222;50.872;4.312;2022-09-24T01:01:29;14.40;99.90
22112;DHT22;11222;50.872;4.312;2022-09-24T01:03:56;14.50;99.90
22112;DHT22;11222;50.872;4.312;2022-09-24T01:06:23;14.50;99.90
22112;DHT22;11222;50.872;4.312;2022-09-24T01:08:49;14.40;99.90
22112;DHT22;11222;50.872;4.312;2022-09-24T01:11:35;14.40;99.90
22112;DHT22;11222;50.872;4.312;2022-09-24T01:14:14;14.40;99.90
22112;DHT22;11222;50.872;4.312;2022-09-24T01:28:12;14.40;99.90
22112;DHT22;11222;50.872;4.312;2022-09-24T01:30:44;14.40;99.90
22112;DHT22;11222;50.872;4.312;2022-09-24T01:33:15;14.40;99.90
22112;DHT22;11222;50.872;4.312;2022-09-24T01:35:51;14.40;99.90
22112;DHT22;11222;50.872;4.312;2022-09-24T01:38:29;14.50;99.90
22112;DHT22;11222;50.872;4.312;2022-09-24T01:40:59;14.50;99.90
22112;DHT22;11222;50.872;4.312;2022-09-24T01:43:26;14.50;99.90
22112;DHT22;11222;50.872;4.312;2022-09-24T01:45:55;14.50;99.90
22112;DHT22;11222;50.872;4.312;2022-09-24T01:48:26;14.50;99.90
22112;DHT22;11222;50.872;4.312;2022-09-24T01:51:05;14.40;99.90
22112;DHT22;11222;50.872;4.312;2022-09-24T01:53:41;14.30;99.90
22112;DHT22;11222;50.872;4.312;2022-09-24T01:56:22;14.30;99.90
22112;DHT22;11222;50.872;4.312;2022-09-24T01:58:52;14.30;99.90
22112;DHT22;11222;50.872;4.312;2022-09-24T02:01:33;14.20;99.90
22112;DHT22;11222;50.872;4.312;2022-09-24T02:04:07;14.30;99.90
22112;DHT22;11222;50.872;4.312;2022-09-24T02:06:41;14.30;99.90
22112;DHT22;11222;50.872;4.312;2022-09-24T02:09:37;14.20;99.90
22112;DHT22;11222;50.872;4.312;2022-09-24T02:12:15;14.20;99.90
22112;DHT22;11222;50.872;4.312;2022-09-24T02:14:50;14.20;99.90
22112;DHT22;11222;50.872;4.312;2022-09-24T02:17:17;14.20;99.90
22112;DHT22;11222;50.872;4.312;2022-09-24T02:19:43;14.10;99.90
22112;DHT22;11222;50.872;4.312;2022-09-24T02:22:13;14.20;99.90
22112;DHT22;11222;50.872;4.312;2022-09-24T02:24:48;14.20;99.90
22112;DHT22;11222;50.872;4.312;2022-09-24T02:27:16;14.20;99.90
22112;DHT22;11222;50.872;4.312;2022-09-24T02:29:42;14.20;99.90
22112;DHT22;11222;50.872;4.312;2022-09-24T02:32:10;14.10;99.90
22112;DHT22;11222;50.872;4.312;2022-09-24T02:34:42;14.10;99.90
22112;DHT22;11222;50.872;4.312;2022-09-24T02:37:12;14.00;99.90
22112;DHT22;11222;50.872;4.312;2022-09-24T02:39:39;14.00;99.90
22112;DHT22;11222;50.872;4.312;2022-09-24T02:42:05;14.00;99.90
22112;DHT22;11222;50.872;4.312;2022-09-24T02:44:32;14.10;99.90
22112;DHT22;11222;50.872;4.312;2022-09-24T02:46:59;14.10;99.90
22112;DHT22;11222;50.872;4.312;2022-09-24T02:49:25;14.10;99.90
22112;DHT22;11222;50.872;4.312;2022-09-24T02:51:51;14.20;99.90
22112;DHT22;11222;50.872;4.312;2022-09-24T02:54:16;14.10;99.90
22112;DHT22;11222;50.872;4.312;2022-09-24T02:56:42;14.10;99.90
22112;DHT22;11222;50.872;4.312;2022-09-24T02:59:08;14.10;99.90
22112;DHT22;11222;50.872;4.312;2022-09-24T03:01:34;14.10;99.90
22112;DHT22;11222;50.872;4.312;2022-09-24T03:04:00;14.20;99.90
22112;DHT22;11222;50.872;4.312;2022-09-24T03:06:27;14.10;99.90
22112;DHT22;11222;50.872;4.312;2022-09-24T03:08:53;14.10;99.90
22112;DHT22;11222;50.872;4.312;2022-09-24T03:11:19;14.10;99.90
22112;DHT22;11222;50.872;4.312;2022-09-24T03:13:49;14.10;99.90
22112;DHT22;11222;50.872;4.312;2022-09-24T03:16:15;14.10;99.90
22112;DHT22;11222;50.872;4.312;2022-09-24T03:18:41;14.00;99.90
22112;DHT22;11222;50.872;4.312;2022-09-24T03:21:09;14.00;99.90
22112;DHT22;11222;50.872;4.312;2022-09-24T03:23:36;14.00;99.90
22112;DHT22;11222;50.872;4.312;2022-09-24T03:26:02;14.00;99.90
22112;DHT22;11222;50.872;4.312;2022-09-24T03:28:28;14.00;99.90
22112;DHT22;11222;50.872;4.312;2022-09-24T03:30:54;13.90;99.90
22112;DHT22;11222;50.872;4.312;2022-09-24T03:33:34;14.00;99.90
22112;DHT22;11222;50.872;4.312;2022-09-24T03:36:15;14.00;99.90
22112;DHT22;11222;50.872;4.312;2022-09-24T03:38:43;14.00;99.90
22112;DHT22;11222;50.872;4.312;2022-09-24T03:41:10;13.90;99.90
22112;DHT22;11222;50.872;4.312;2022-09-24T03:43:36;13.90;99.90
22112;DHT22;11222;50.872;4.312;2022-09-24T03:46:03;13.90;99.90
22112;DHT22;11222;50.872;4.312;2022-09-24T03:48:33;13.90;99.90
22112;DHT22;11222;50.872;4.312;2022-09-24T03:51:06;13.90;99.90
22112;DHT22;11222;50.872;4.312;2022-09-24T03:53:32;14.00;99.90
22112;DHT22;11222;50.872;4.312;2022-09-24T03:55:58;13.90;99.90
22112;DHT22;11222;50.872;4.312;2022-09-24T03:58:27;13.90;99.90
22112;DHT22;11222;50.872;4.312;2022-09-24T04:00:53;13.90;99.90
22112;DHT22;11222;50.872;4.312;2022-09-24T04:03:23;13.90;99.90
22112;DHT22;11222;50.872;4.312;2022-09-24T04:05:49;13.90;99.90
22112;DHT22;11222;50.872;4.312;2022-09-24T04:08:16;13.90;99.90
22112;DHT22;11222;50.872;4.312;2022-09-24T04:10:48;13.90;99.90
22112;DHT22;11222;50.872;4.312;2022-09-24T04:13:14;13.90;99.90
22112;DHT22;11222;50.872;4.312;2022-09-24T04:15:40;13.80;99.90
22112;DHT22;11222;50.872;4.312;2022-09-24T04:18:06;13.80;99.90
22112;DHT22;11222;50.872;4.312;2022-09-24T04:20:32;13.80;99.90
22112;DHT22;11222;50.872;4.312;2022-09-24T04:22:59;13.80;99.90
22112;DHT22;11222;50.872;4.312;2022-09-24T04:25:27;13.80;99.90
22112;DHT22;11222;50.872;4.312;2022-09-24T04:27:57;13.80;99.90
22112;DHT22;11222;50.872;4.312;2022-09-24T04:30:24;13.80;99.90
22112;DHT22;11222;50.872;4.312;2022-09-24T04:32:51;13.90;99.90
22112;DHT22;11222;50.872;4.312;2022-09-24T04:35:18;14.00;99.90
22112;DHT22;11222;50.872;4.312;2022-09-24T04:37:44;14.00;99.90
22112;DHT22;11222;50.872;4.312;2022-09-24T04:40:11;14.10;99.90
22112;DHT22;11222;50.872;4.312;2022-09-24T04:42:38;14.20;99.90
22112;DHT22;11222;50.872;4.312;2022-09-24T04:45:05;14.20;99.90
22112;DHT22;11222;50.872;4.312;2022-09-24T04:47:33;14.10;99.90
22112;DHT22;11222;50.872;4.312;2022-09-24T04:49:58;14.10;99.90
22112;DHT22;11222;50.872;4.312;2022-09-24T04:52:27;14.10;99.90
22112;DHT22;11222;50.872;4.312;2022-09-24T04:54:54;14.20;99.90
22112;DHT22;11222;50.872;4.312;2022-09-24T04:57:22;14.20;99.90
22112;DHT22;11222;50.872;4.312;2022-09-24T04:59:48;14.10;99.90
22112;DHT22;11222;50.872;4.312;2022-09-24T05:02:14;14.00;99.90
22112;DHT22;11222;50.872;4.312;2022-09-24T05:04:41;14.00;99.90
22112;DHT22;11222;50.872;4.312;2022-09-24T05:07:08;14.00;99.90
22112;DHT22;11222;50.872;4.312;2022-09-24T05:09:34;13.80;99.90
22112;DHT22;11222;50.872;4.312;2022-09-24T05:12:01;13.90;99.90
22112;DHT22;11222;50.872;4.312;2022-09-24T05:14:27;13.90;99.90
22112;DHT22;11222;50.872;4.312;2022-09-24T05:16:52;14.00;99.90
22112;DHT22;11222;50.872;4.312;2022-09-24T05:19:18;14.00;99.90
22112;DHT22;11222;50.872;4.312;2022-09-24T05:21:44;14.10;99.90
22112;DHT22;11222;50.872;4.312;2022-09-24T05:24:10;14.10;99.90
22112;DHT22;11222;50.872;4.312;2022-09-24T05:26:36;14.10;99.90
22112;DHT22;11222;50.872;4.312;2022-09-24T05:29:20;14.00;99.90
22112;DHT22;11222;50.872;4.312;2022-09-24T05:31:46;14.00;99.90
22112;DHT22;11222;50.872;4.312;2022-09-24T05:34:12;14.10;99.90
22112;DHT22;11222;50.872;4.312;2022-09-24T05:36:39;14.10;99.90
22112;DHT22;11222;50.872;4.312;2022-09-24T05:39:05;14.10;99.90
22112;DHT22;11222;50.872;4.312;2022-09-24T05:41:31;14.10;99.90
22112;DHT22;11222;50.872;4.312;2022-09-24T05:43:57;14.10;99.90
22112;DHT22;11222;50.872;4.312;2022-09-24T05:46:24;14.20;99.90
22112;DHT22;11222;50.872;4.312;2022-09-24T05:48:49;14.20;99.90
22112;DHT22;11222;50.872;4.312;2022-09-24T05:51:15;14.30;99.90
22112;DHT22;11222;50.872;4.312;2022-09-24T05:53:41;14.30;99.90
22112;DHT22;11222;50.872;4.312;2022-09-24T05:56:07;14.30;99.90
22112;DHT22;11222;50.872;4.312;2022-09-24T05:58:35;14.20;99.90
22112;DHT22;11222;50.872;4.312;2022-09-24T06:01:00;14.20;99.90
22112;DHT22;11222;50.872;4.312;2022-09-24T06:03:26;14.20;99.90
22112;DHT22;11222;50.872;4.312;2022-09-24T06:05:54;14.20;99.90
22112;DHT22;11222;50.872;4.312;2022-09-24T06:08:21;14.20;99.90
22112;DHT22;11222;50.872;4.312;2022-09-24T06:10:47;14.20;99.90
22112;DHT22;11222;50.872;4.312;2022-09-24T06:13:16;14.20;99.90
22112;DHT22;11222;50.872;4.312;2022-09-24T06:15:43;14.20;99.90
22112;DHT22;11222;50.872;4.312;2022-09-24T06:18:10;14.10;99.90
22112;DHT22;11222;50.872;4.312;2022-09-24T06:20:36;14.10;99.90
22112;DHT22;11222;50.872;4.312;2022-09-24T06:23:03;14.10;99.90
22112;DHT22;11222;50.872;4.312;2022-09-24T06:25:29;14.10;99.90
22112;DHT22;11222;50.872;4.312;2022-09-24T06:27:57;14.00;99.90
22112;DHT22;11222;50.872;4.312;2022-09-24T06:30:29;14.00;99.90
22112;DHT22;11222;50.872;4.312;2022-09-24T06:33:03;14.00;99.90
22112;DHT22;11222;50.872;4.312;2022-09-24T06:35:32;14.00;99.90
22112;DHT22;11222;50.872;4.312;2022-09-24T06:37:58;14.00;99.90
22112;DHT22;11222;50.872;4.312;2022-09-24T06:40:24;14.00;99.90
22112;DHT22;11222;50.872;4.312;2022-09-24T06:42:54;14.10;99.90
22112;DHT22;11222;50.872;4.312;2022-09-24T06:45:20;14.10;99.90
22112;DHT22;11222;50.872;4.312;2022-09-24T06:47:57;14.00;99.90
22112;DHT22;11222;50.872;4.312;2022-09-24T06:50:24;14.00;99.90
22112;DHT22;11222;50.872;4.312;2022-09-24T06:52:50;14.00;99.90
22112;DHT22;11222;50.872;4.312;2022-09-24T06:55:16;14.00;99.90
22112;DHT22;11222;50.872;4.312;2022-09-24T06:57:43;14.00;99.90
22112;DHT22;11222;50.872;4.312;2022-09-24T07:00:09;14.00;99.90
22112;DHT22;11222;50.872;4.312;2022-09-24T07:02:36;14.00;99.90
22112;DHT22;11222;50.872;4.312;2022-09-24T07:05:02;14.10;99.90
22112;DHT22;11222;50.872;4.312;2022-09-24T07:07:28;14.10;99.90
22112;DHT22;11222;50.872;4.312;2022-09-24T07:09:54;14.10;99.90
22112;DHT22;11222;50.872;4.312;2022-09-24T07:12:20;14.10;99.90
22112;DHT22;11222;50.872;4.312;2022-09-24T07:14:46;14.20;99.90
22112;DHT22;11222;50.872;4.312;2022-09-24T07:17:12;14.20;99.90
22112;DHT22;11222;50.872;4.312;2022-09-24T07:19:38;14.20;99.90
22112;DHT22;11222;50.872;4.312;2022-09-24T07:22:04;14.30;99.90
22112;DHT22;11222;50.872;4.312;2022-09-24T07:24:30;14.40;99.90
22112;DHT22;11222;50.872;4.312;2022-09-24T07:26:55;14.50;99.90
22112;DHT22;11222;50.872;4.312;2022-09-24T07:29:21;14.50;99.90
22112;DHT22;11222;50.872;4.312;2022-09-24T07:31:47;14.50;99.90
22112;DHT22;11222;50.872;4.312;2022-09-24T07:34:13;14.50;99.90
22112;DHT22;11222;50.872;4.312;2022-09-24T07:36:40;14.60;99.90
22112;DHT22;11222;50.872;4.312;2022-09-24T07:39:05;14.60;99.90
22112;DHT22;11222;50.872;4.312;2022-09-24T07:41:31;14.60;99.90
22112;DHT22;11222;50.872;4.312;2022-09-24T07:43:58;14.60;99.90
22112;DHT22;11222;50.872;4.312;2022-09-24T07:46:24;14.60;99.90
22112;DHT22;11222;50.872;4.312;2022-09-24T07:48:53;14.70;99.90
22112;DHT22;11222;50.872;4.312;2022-09-24T07:51:21;14.70;99.90
22112;DHT22;11222;50.872;4.312;2022-09-24T07:53:47;14.70;99.90
22112;DHT22;11222;50.872;4.312;2022-09-24T07:56:13;14.70;99.90
22112;DHT22;11222;50.872;4.312;2022-09-24T07:58:39;14.70;99.90
22112;DHT22;11222;50.872;4.312;2022-09-24T08:01:05;14.90;99.90
22112;DHT22;11222;50.872;4.312;2022-09-24T08:03:31;14.80;99.90
22112;DHT22;11222;50.872;4.312;2022-09-24T08:05:57;14.70;99.90
22112;DHT22;11222;50.872;4.312;2022-09-24T08:08:24;14.70;99.90
22112;DHT22;11222;50.872;4.312;2022-09-24T08:10:50;14.70;99.90
22112;DHT22;11222;50.872;4.312;2022-09-24T08:13:16;14.70;99.90
22112;DHT22;11222;50.872;4.312;2022-09-24T08:15:42;14.70;99.90
22112;DHT22;11222;50.872;4.312;2022-09-24T08:18:08;14.60;99.90
22112;DHT22;11222;50.872;4.312;2022-09-24T08:20:38;14.60;99.90
22112;DHT22;11222;50.872;4.312;2022-09-24T08:23:05;14.50;99.90
22112;DHT22;11222;50.872;4.312;2022-09-24T08:25:32;14.60;99.90
22112;DHT22;11222;50.872;4.312;2022-09-24T08:28:05;14.60;99.90
22112;DHT22;11222;50.872;4.312;2022-09-24T08:30:31;14.70;99.90
22112;DHT22;11222;50.872;4.312;2022-09-24T08:32:58;14.70;99.90
22112;DHT22;11222;50.872;4.312;2022-09-24T08:35:23;14.70;99.90
22112;DHT22;11222;50.872;4.312;2022-09-24T08:37:52;14.80;99.90
22112;DHT22;11222;50.872;4.312;2022-09-24T08:40:24;14.80;99.90
22112;DHT22;11222;50.872;4.312;2022-09-24T08:45:50;14.60;99.90
22112;DHT22;11222;50.872;4.312;2022-09-24T08:48:39;14.50;99.90
22112;DHT22;11222;50.872;4.312;2022-09-24T08:51:11;14.50;99.90
22112;DHT22;11222;50.872;4.312;2022-09-24T08:53:49;14.40;99.90
22112;DHT22;11222;50.872;4.312;2022-09-24T08:56:25;14.40;99.90
22112;DHT22;11222;50.872;4.312;2022-09-24T09:01:32;14.40;99.90
22112;DHT22;11222;50.872;4.312;2022-09-24T09:12:10;14.70;99.90
22112;DHT22;11222;50.872;4.312;2022-09-24T09:14:45;14.70;99.90
22112;DHT22;11222;50.872;4.312;2022-09-24T09:19:58;14.70;99.90
22112;DHT22;11222;50.872;4.312;2022-09-24T09:22:35;14.70;99.90
22112;DHT22;11222;50.872;4.312;2022-09-24T09:25:17;14.70;99.90
22112;DHT22;11222;50.872;4.312;2022-09-24T09:27:46;14.80;99.90
22112;DHT22;11222;50.872;4.312;2022-09-24T09:30:13;14.80;99.90
22112;DHT22;11222;50.872;4.312;2022-09-24T09:33:19;14.90;99.90
22112;DHT22;11222;50.872;4.312;2022-09-24T09:38:27;15.00;99.90
22112;DHT22;11222;50.872;4.312;2022-09-24T09:43:42;15.10;99.90
22112;DHT22;11222;50.872;4.312;2022-09-24T09:46:22;15.10;99.90
22112;DHT22;11222;50.872;4.312;2022-09-24T09:48:54;15.20;99.90
22112;DHT22;11222;50.872;4.312;2022-09-24T09:51:24;15.20;99.90
22112;DHT22;11222;50.872;4.312;2022-09-24T09:54:00;15.20;99.90
22112;DHT22;11222;50.872;4.312;2022-09-24T09:56:34;15.20;99.90
22112;DHT22;11222;50.872;4.312;2022-09-24T09:59:20;15.30;99.90
22112;DHT22;11222;50.872;4.312;2022-09-24T10:01:48;15.20;99.90
22112;DHT22;11222;50.872;4.312;2022-09-24T10:09:32;15.00;99.90
22112;DHT22;11222;50.872;4.312;2022-09-24T10:12:18;15.00;99.90
22112;DHT22;11222;50.872;4.312;2022-09-24T10:15:03;15.00;99.90
22112;DHT22;11222;50.872;4.312;2022-09-24T10:17:38;15.10;99.90
22112;DHT22;11222;50.872;4.312;2022-09-24T10:20:25;15.10;99.90
22112;DHT22;11222;50.872;4.312;2022-09-24T10:23:06;15.20;99.90
22112;DHT22;11222;50.872;4.312;2022-09-24T10:25:37;15.20;99.90
22112;DHT22;11222;50.872;4.312;2022-09-24T10:28:07;15.10;99.90
22112;DHT22;11222;50.872;4.312;2022-09-24T10:31:02;15.20;99.90
22112;DHT22;11222;50.872;4.312;2022-09-24T10:33:40;15.30;99.90
22112;DHT22;11222;50.872;4.312;2022-09-24T10:36:17;15.20;99.90
22112;DHT22;11222;50.872;4.312;2022-09-24T10:38:43;15.20;99.90
22112;DHT22;11222;50.872;4.312;2022-09-24T10:41:26;15.20;99.90
22112;DHT22;11222;50.872;4.312;2022-09-24T10:43:54;15.50;99.90
22112;DHT22;11222;50.872;4.312;2022-09-24T10:52:18;15.50;99.90
22112;DHT22;11222;50.872;4.312;2022-09-24T10:57:17;15.60;99.90
22112;DHT22;11222;50.872;4.312;2022-09-24T11:05:09;15.60;99.90
22112;DHT22;11222;50.872;4.312;2022-09-24T11:07:55;15.70;99.90
22112;DHT22;11222;50.872;4.312;2022-09-24T11:13:30;15.50;99.90
22112;DHT22;11222;50.872;4.312;2022-09-24T11:24:27;15.40;99.90
22112;DHT22;11222;50.872;4.312;2022-09-24T11:38:08;15.70;99.90
22112;DHT22;11222;50.872;4.312;2022-09-24T11:43:47;16.00;99.90
22112;DHT22;11222;50.872;4.312;2022-09-24T11:54:45;16.20;99.90
22112;DHT22;11222;50.872;4.312;2022-09-24T11:57:24;16.00;99.90
22112;DHT22;11222;50.872;4.312;2022-09-24T12:02:30;15.70;99.90
22112;DHT22;11222;50.872;4.312;2022-09-24T12:05:02;15.60;99.90
22112;DHT22;11222;50.872;4.312;2022-09-24T12:07:46;15.50;99.90
22112;DHT22;11222;50.872;4.312;2022-09-24T12:10:34;15.50;99.90
22112;DHT22;11222;50.872;4.312;2022-09-24T12:13:11;15.60;99.90
22112;DHT22;11222;50.872;4.312;2022-09-24T12:16:05;15.70;99.90
22112;DHT22;11222;50.872;4.312;2022-09-24T12:18:34;15.70;99.90
22112;DHT22;11222;50.872;4.312;2022-09-24T12:21:16;15.70;99.90
22112;DHT22;11222;50.872;4.312;2022-09-24T12:23:45;15.70;99.90
22112;DHT22;11222;50.872;4.312;2022-09-24T12:26:13;15.70;99.90
22112;DHT22;11222;50.872;4.312;2022-09-24T12:32:04;15.60;99.90
22112;DHT22;11222;50.872;4.312;2022-09-24T12:37:42;15.60;99.90
22112;DHT22;11222;50.872;4.312;2022-09-24T12:42:54;15.80;99.90
22112;DHT22;11222;50.872;4.312;2022-09-24T12:45:22;15.90;99.90
22112;DHT22;11222;50.872;4.312;2022-09-24T12:47:55;16.00;99.90
22112;DHT22;11222;50.872;4.312;2022-09-24T12:50:31;16.10;99.90
22112;DHT22;11222;50.872;4.312;2022-09-24T12:52:59;16.20;99.90
22112;DHT22;11222;50.872;4.312;2022-09-24T12:55:27;16.20;99.90
22112;DHT22;11222;50.872;4.312;2022-09-24T12:58:03;16.20;99.90
22112;DHT22;11222;50.872;4.312;2022-09-24T13:00:43;16.30;99.90
22112;DHT22;11222;50.872;4.312;2022-09-24T13:03:34;16.20;99.90
22112;DHT22;11222;50.872;4.312;2022-09-24T13:06:00;16.20;99.90
22112;DHT22;11222;50.872;4.312;2022-09-24T13:08:36;16.10;99.90
22112;DHT22;11222;50.872;4.312;2022-09-24T13:11:21;16.00;99.90
22112;DHT22;11222;50.872;4.312;2022-09-24T13:13:59;15.90;99.90
22112;DHT22;11222;50.872;4.312;2022-09-24T13:16:26;15.80;99.90
22112;DHT22;11222;50.872;4.312;2022-09-24T13:18:59;15.70;99.90
22112;DHT22;11222;50.872;4.312;2022-09-24T13:21:27;15.60;99.90
22112;DHT22;11222;50.872;4.312;2022-09-24T13:23:54;15.80;99.90
22112;DHT22;11222;50.872;4.312;2022-09-24T13:36:37;16.10;99.90
22112;DHT22;11222;50.872;4.312;2022-09-24T13:39:24;16.10;99.90
22112;DHT22;11222;50.872;4.312;2022-09-24T13:42:18;16.10;99.90
22112;DHT22;11222;50.872;4.312;2022-09-24T13:44:54;16.20;99.90
22112;DHT22;11222;50.872;4.312;2022-09-24T13:50:16;16.20;99.90
22112;DHT22;11222;50.872;4.312;2022-09-24T13:52:55;16.10;99.90
22112;DHT22;11222;50.872;4.312;2022-09-24T13:55:32;16.10;99.90
22112;DHT22;11222;50.872;4.312;2022-09-24T13:57:59;16.10;99.90
22112;DHT22;11222;50.872;4.312;2022-09-24T14:00:29;16.00;99.90
22112;DHT22;11222;50.872;4.312;2022-09-24T14:05:40;15.80;99.90
22112;DHT22;11222;50.872;4.312;2022-09-24T14:08:11;15.60;99.90
22112;DHT22;11222;50.872;4.312;2022-09-24T14:10:38;15.60;99.90
22112;DHT22;11222;50.872;4.312;2022-09-24T14:13:17;15.60;99.90
22112;DHT22;11222;50.872;4.312;2022-09-24T14:15:57;15.60;99.90
22112;DHT22;11222;50.872;4.312;2022-09-24T14:18:25;15.60;99.90
22112;DHT22;11222;50.872;4.312;2022-09-24T14:26:37;15.80;99.90
22112;DHT22;11222;50.872;4.312;2022-09-24T14:29:11;15.80;99.90
22112;DHT22;11222;50.872;4.312;2022-09-24T14:31:46;15.60;99.90
22112;DHT22;11222;50.872;4.312;2022-09-24T14:36:51;15.50;99.90
22112;DHT22;11222;50.872;4.312;2022-09-24T14:39:17;15.40;99.90
22112;DHT22;11222;50.872;4.312;2022-09-24T14:41:43;15.40;99.90
22112;DHT22;11222;50.872;4.312;2022-09-24T14:44:24;15.40;99.90
22112;DHT22;11222;50.872;4.312;2022-09-24T14:46:57;15.30;99.90
22112;DHT22;11222;50.872;4.312;2022-09-24T14:49:27;15.30;99.90
22112;DHT22;11222;50.872;4.312;2022-09-24T14:51:59;15.30;99.90
22112;DHT22;11222;50.872;4.312;2022-09-24T14:54:38;15.20;99.90
22112;DHT22;11222;50.872;4.312;2022-09-24T14:57:24;15.20;99.90
22112;DHT22;11222;50.872;4.312;2022-09-24T14:59:50;15.10;99.90
22112;DHT22;11222;50.872;4.312;2022-09-24T15:02:32;15.00;99.90
22112;DHT22;11222;50.872;4.312;2022-09-24T15:05:05;15.10;99.90
22112;DHT22;11222;50.872;4.312;2022-09-24T15:07:32;15.00;99.90
22112;DHT22;11222;50.872;4.312;2022-09-24T15:10:00;15.00;99.90
22112;DHT22;11222;50.872;4.312;2022-09-24T15:12:35;15.10;99.90
22112;DHT22;11222;50.872;4.312;2022-09-24T15:17:42;15.00;99.90
22112;DHT22;11222;50.872;4.312;2022-09-24T15:20:10;15.00;99.90
22112;DHT22;11222;50.872;4.312;2022-09-24T15:22:36;15.00;99.90
22112;DHT22;11222;50.872;4.312;2022-09-24T15:25:02;15.10;99.90
22112;DHT22;11222;50.872;4.312;2022-09-24T15:27:30;15.10;99.90
22112;DHT22;11222;50.872;4.312;2022-09-24T15:29:57;15.00;99.90
22112;DHT22;11222;50.872;4.312;2022-09-24T15:32:28;15.10;99.90
22112;DHT22;11222;50.872;4.312;2022-09-24T15:34:56;15.20;99.90
22112;DHT22;11222;50.872;4.312;2022-09-24T15:37:23;15.30;99.90
22112;DHT22;11222;50.872;4.312;2022-09-24T15:39:50;15.20;99.90
22112;DHT22;11222;50.872;4.312;2022-09-24T15:42:19;15.10;99.90
22112;DHT22;11222;50.872;4.312;2022-09-24T15:44:46;15.20;99.90
22112;DHT22;11222;50.872;4.312;2022-09-24T15:47:15;15.20;99.90
22112;DHT22;11222;50.872;4.312;2022-09-24T15:49:41;15.20;99.90
22112;DHT22;11222;50.872;4.312;2022-09-24T15:52:27;15.10;99.90
22112;DHT22;11222;50.872;4.312;2022-09-24T15:54:54;15.10;99.90
22112;DHT22;11222;50.872;4.312;2022-09-24T15:57:21;15.00;99.90
22112;DHT22;11222;50.872;4.312;2022-09-24T15:59:51;15.00;99.90
22112;DHT22;11222;50.872;4.312;2022-09-24T16:02:22;15.00;99.90
22112;DHT22;11222;50.872;4.312;2022-09-24T16:04:49;14.80;99.90
22112;DHT22;11222;50.872;4.312;2022-09-24T16:07:15;14.70;99.90
22112;DHT22;11222;50.872;4.312;2022-09-24T16:09:41;14.70;99.90
22112;DHT22;11222;50.872;4.312;2022-09-24T16:12:11;14.70;99.90
22112;DHT22;11222;50.872;4.312;2022-09-24T16:14:38;14.70;99.90
22112;DHT22;11222;50.872;4.312;2022-09-24T16:17:04;14.70;99.90
22112;DHT22;11222;50.872;4.312;2022-09-24T16:19:29;14.60;99.90
22112;DHT22;11222;50.872;4.312;2022-09-24T16:21:55;14.60;99.90
22112;DHT22;11222;50.872;4.312;2022-09-24T16:24:21;14.60;99.90
22112;DHT22;11222;50.872;4.312;2022-09-24T16:26:46;14.60;99.90
22112;DHT22;11222;50.872;4.312;2022-09-24T16:29:13;14.60;99.90
22112;DHT22;11222;50.872;4.312;2022-09-24T16:31:39;14.60;99.90
22112;DHT22;11222;50.872;4.312;2022-09-24T16:34:05;14.60;99.90
22112;DHT22;11222;50.872;4.312;2022-09-24T16:36:30;14.60;99.90
22112;DHT22;11222;50.872;4.312;2022-09-24T16:38:56;14.60;99.90
22112;DHT22;11222;50.872;4.312;2022-09-24T16:41:23;14.70;99.90
22112;DHT22;11222;50.872;4.312;2022-09-24T16:43:48;14.70;99.90
22112;DHT22;11222;50.872;4.312;2022-09-24T16:46:20;14.60;99.90
22112;DHT22;11222;50.872;4.312;2022-09-24T16:48:48;14.50;99.90
22112;DHT22;11222;50.872;4.312;2022-09-24T16:51:14;14.50;99.90
22112;DHT22;11222;50.872;4.312;2022-09-24T16:53:40;14.50;99.90
22112;DHT22;11222;50.872;4.312;2022-09-24T16:56:09;14.50;99.90
22112;DHT22;11222;50.872;4.312;2022-09-24T16:58:35;14.40;99.90
22112;DHT22;11222;50.872;4.312;2022-09-24T17:01:05;14.30;99.90
22112;DHT22;11222;50.872;4.312;2022-09-24T17:03:32;14.30;99.90
22112;DHT22;11222;50.872;4.312;2022-09-24T17:05:57;14.40;99.90
22112;DHT22;11222;50.872;4.312;2022-09-24T17:08:23;14.40;99.90
22112;DHT22;11222;50.872;4.312;2022-09-24T17:11:09;14.20;99.90
22112;DHT22;11222;50.872;4.312;2022-09-24T17:13:34;14.30;99.90
22112;DHT22;11222;50.872;4.312;2022-09-24T17:16:00;14.40;99.90
22112;DHT22;11222;50.872;4.312;2022-09-24T17:18:26;14.40;99.90
22112;DHT22;11222;50.872;4.312;2022-09-24T17:21:02;14.50;99.90
22112;DHT22;11222;50.872;4.312;2022-09-24T17:23:29;14.50;99.90
22112;DHT22;11222;50.872;4.312;2022-09-24T17:26:06;14.40;99.90
22112;DHT22;11222;50.872;4.312;2022-09-24T17:28:34;14.30;99.90
22112;DHT22;11222;50.872;4.312;2022-09-24T17:31:01;14.30;99.90
22112;DHT22;11222;50.872;4.312;2022-09-24T17:33:27;14.30;99.90
22112;DHT22;11222;50.872;4.312;2022-09-24T17:35:54;14.20;99.90
22112;DHT22;11222;50.872;4.312;2022-09-24T17:38:20;14.30;99.90
22112;DHT22;11222;50.872;4.312;2022-09-24T17:40:58;14.30;99.90
22112;DHT22;11222;50.872;4.312;2022-09-24T17:43:24;14.30;99.90
22112;DHT22;11222;50.872;4.312;2022-09-24T17:46:19;14.20;99.90
22112;DHT22;11222;50.872;4.312;2022-09-24T17:48:50;14.30;99.90
22112;DHT22;11222;50.872;4.312;2022-09-24T17:51:19;14.30;99.90
22112;DHT22;11222;50.872;4.312;2022-09-24T17:53:47;14.30;99.90